sensor_id;sensor_type;location;lat;lon;timestamp;P1;durP1;ratioP1;P2;durP2;ratioP2
14306;SDS011;7237;49.500;11.400;2022-10-30T00:00:53;7.83;;;6.50;;
14306;SDS011;7237;49.500;11.400;2022-10-30T00:03:20;11.63;;;6.63;;
14306;SDS011;7237;49.500;11.400;2022-10-30T00:05:48;12.87;;;6.60;;
14306;SDS011;7237;49.500;11.400;2022-10-30T00:08:16;10.10;;;6.03;;
14306;SDS011;7237;49.500;11.400;2022-10-30T00:10:44;12.07;;;7.17;;
14306;SDS011;7237;49.500;11.400;2022-10-30T00:13:11;8.23;;;6.20;;
14306;SDS011;7237;49.500;11.400;2022-10-30T00:15:39;10.47;;;6.50;;
14306;SDS011;7237;49.500;11.400;2022-10-30T00:18:07;10.70;;;6.07;;
14306;SDS011;7237;49.500;11.400;2022-10-30T00:20:34;16.20;;;6.70;;
14306;SDS011;7237;49.500;11.400;2022-10-30T00:23:01;13.60;;;7.03;;
14306;SDS011;7237;49.500;11.400;2022-10-30T00:25:28;11.00;;;6.70;;
14306;SDS011;7237;49.500;11.400;2022-10-30T00:27:56;12.37;;;7.00;;
14306;SDS011;7237;49.500;11.400;2022-10-30T00:30:23;12.00;;;6.27;;
14306;SDS011;7237;49.500;11.400;2022-10-30T00:32:50;16.93;;;6.43;;
14306;SDS011;7237;49.500;11.400;2022-10-30T00:35:18;13.60;;;6.37;;
14306;SDS011;7237;49.500;11.400;2022-10-30T00:37:45;8.63;;;6.13;;
14306;SDS011;7237;49.500;11.400;2022-10-30T00:40:13;9.90;;;6.43;;
14306;SDS011;7237;49.500;11.400;2022-10-30T00:42:41;10.40;;;6.30;;
14306;SDS011;7237;49.500;11.400;2022-10-30T00:45:09;10.53;;;6.47;;
14306;SDS011;7237;49.500;11.400;2022-10-30T00:47:37;11.67;;;6.93;;
14306;SDS011;7237;49.500;11.400;2022-10-30T00:50:08;11.23;;;6.97;;
14306;SDS011;7237;49.500;11.400;2022-10-30T00:52:37;11.03;;;6.83;;
14306;SDS011;7237;49.500;11.400;2022-10-30T00:55:06;10.00;;;6.43;;
14306;SDS011;7237;49.500;11.400;2022-10-30T00:57:34;11.13;;;6.73;;
14306;SDS011;7237;49.500;11.400;2022-10-30T01:00:03;10.97;;;6.30;;
14306;SDS011;7237;49.500;11.400;2022-10-30T01:02:30;12.27;;;6.10;;
14306;SDS011;7237;49.500;11.400;2022-10-30T01:04:57;10.83;;;6.33;;
14306;SDS011;7237;49.500;11.400;2022-10-30T01:07:25;15.40;;;6.90;;
14306;SDS011;7237;49.500;11.400;2022-10-30T01:09:54;11.03;;;6.33;;
14306;SDS011;7237;49.500;11.400;2022-10-30T01:12:21;12.87;;;6.80;;
14306;SDS011;7237;49.500;11.400;2022-10-30T01:14:48;13.83;;;6.27;;
14306;SDS011;7237;49.500;11.400;2022-10-30T01:17:21;10.40;;;6.40;;
14306;SDS011;7237;49.500;11.400;2022-10-30T01:19:53;12.70;;;6.47;;
14306;SDS011;7237;49.500;11.400;2022-10-30T01:22:27;10.80;;;6.37;;
14306;SDS011;7237;49.500;11.400;2022-10-30T01:25:00;7.87;;;6.20;;
14306;SDS011;7237;49.500;11.400;2022-10-30T01:27:32;13.57;;;6.60;;
14306;SDS011;7237;49.500;11.400;2022-10-30T01:30:04;15.00;;;7.03;;
14306;SDS011;7237;49.500;11.400;2022-10-30T01:32:38;12.57;;;6.13;;
14306;SDS011;7237;49.500;11.400;2022-10-30T01:35:08;12.97;;;6.23;;
14306;SDS011;7237;49.500;11.400;2022-10-30T01:37:37;12.87;;;6.50;;
14306;SDS011;7237;49.500;11.400;2022-10-30T01:40:09;11.00;;;6.30;;
14306;SDS011;7237;49.500;11.400;2022-10-30T01:42:44;11.17;;;6.30;;
14306;SDS011;7237;49.500;11.400;2022-10-30T01:45:12;11.00;;;6.57;;
14306;SDS011;7237;49.500;11.400;2022-10-30T01:47:42;9.63;;;6.03;;
14306;SDS011;7237;49.500;11.400;2022-10-30T01:50:16;8.40;;;5.73;;
14306;SDS011;7237;49.500;11.400;2022-10-30T01:52:48;13.37;;;6.23;;
14306;SDS011;7237;49.500;11.400;2022-10-30T01:55:23;10.90;;;6.30;;
14306;SDS011;7237;49.500;11.400;2022-10-30T01:57:54;14.07;;;6.23;;
14306;SDS011;7237;49.500;11.400;2022-10-30T02:00:23;13.77;;;6.00;;
14306;SDS011;7237;49.500;11.400;2022-10-30T02:02:50;8.87;;;6.43;;
14306;SDS011;7237;49.500;11.400;2022-10-30T02:05:19;9.23;;;5.87;;
14306;SDS011;7237;49.500;11.400;2022-10-30T02:07:47;15.33;;;6.40;;
14306;SDS011;7237;49.500;11.400;2022-10-30T02:10:14;11.37;;;6.33;;
14306;SDS011;7237;49.500;11.400;2022-10-30T02:12:43;8.80;;;5.73;;
14306;SDS011;7237;49.500;11.400;2022-10-30T02:15:10;10.70;;;6.37;;
14306;SDS011;7237;49.500;11.400;2022-10-30T02:17:37;12.53;;;5.70;;
14306;SDS011;7237;49.500;11.400;2022-10-30T02:20:05;8.97;;;5.67;;
14306;SDS011;7237;49.500;11.400;2022-10-30T02:22:33;10.33;;;6.30;;
14306;SDS011;7237;49.500;11.400;2022-10-30T02:25:00;13.63;;;5.73;;
14306;SDS011;7237;49.500;11.400;2022-10-30T02:27:27;17.30;;;6.53;;
14306;SDS011;7237;49.500;11.400;2022-10-30T02:29:54;12.20;;;6.00;;
14306;SDS011;7237;49.500;11.400;2022-10-30T02:32:22;12.70;;;6.13;;
14306;SDS011;7237;49.500;11.400;2022-10-30T02:34:50;12.33;;;6.13;;
14306;SDS011;7237;49.500;11.400;2022-10-30T02:37:17;10.77;;;6.30;;
14306;SDS011;7237;49.500;11.400;2022-10-30T02:39:45;11.43;;;6.10;;
14306;SDS011;7237;49.500;11.400;2022-10-30T02:42:12;10.93;;;6.23;;
14306;SDS011;7237;49.500;11.400;2022-10-30T02:44:39;12.90;;;6.37;;
14306;SDS011;7237;49.500;11.400;2022-10-30T02:47:06;10.00;;;5.77;;
14306;SDS011;7237;49.500;11.400;2022-10-30T02:49:33;13.60;;;6.40;;
14306;SDS011;7237;49.500;11.400;2022-10-30T02:52:00;9.53;;;6.30;;
14306;SDS011;7237;49.500;11.400;2022-10-30T02:54:28;11.20;;;5.97;;
14306;SDS011;7237;49.500;11.400;2022-10-30T02:56:56;10.27;;;6.13;;
14306;SDS011;7237;49.500;11.400;2022-10-30T02:59:23;12.57;;;6.13;;
14306;SDS011;7237;49.500;11.400;2022-10-30T03:01:50;16.00;;;5.80;;
14306;SDS011;7237;49.500;11.400;2022-10-30T03:04:17;10.53;;;5.50;;
14306;SDS011;7237;49.500;11.400;2022-10-30T03:06:44;10.10;;;6.03;;
14306;SDS011;7237;49.500;11.400;2022-10-30T03:09:11;10.27;;;6.00;;
14306;SDS011;7237;49.500;11.400;2022-10-30T03:11:38;8.07;;;5.27;;
14306;SDS011;7237;49.500;11.400;2022-10-30T03:14:07;7.40;;;6.00;;
14306;SDS011;7237;49.500;11.400;2022-10-30T03:16:35;7.77;;;5.37;;
14306;SDS011;7237;49.500;11.400;2022-10-30T03:19:03;8.57;;;5.90;;
14306;SDS011;7237;49.500;11.400;2022-10-30T03:21:30;8.37;;;5.53;;
14306;SDS011;7237;49.500;11.400;2022-10-30T03:23:57;8.47;;;5.43;;
14306;SDS011;7237;49.500;11.400;2022-10-30T03:26:24;10.17;;;6.07;;
14306;SDS011;7237;49.500;11.400;2022-10-30T03:28:51;13.33;;;6.00;;
14306;SDS011;7237;49.500;11.400;2022-10-30T03:31:19;11.50;;;6.43;;
14306;SDS011;7237;49.500;11.400;2022-10-30T03:33:47;16.03;;;6.40;;
14306;SDS011;7237;49.500;11.400;2022-10-30T03:36:14;12.60;;;6.03;;
14306;SDS011;7237;49.500;11.400;2022-10-30T03:38:41;14.70;;;6.40;;
14306;SDS011;7237;49.500;11.400;2022-10-30T03:41:08;10.67;;;6.60;;
14306;SDS011;7237;49.500;11.400;2022-10-30T03:43:35;11.07;;;5.93;;
14306;SDS011;7237;49.500;11.400;2022-10-30T03:46:03;14.90;;;6.13;;
14306;SDS011;7237;49.500;11.400;2022-10-30T03:48:31;11.40;;;6.40;;
14306;SDS011;7237;49.500;11.400;2022-10-30T03:50:58;10.90;;;5.67;;
14306;SDS011;7237;49.500;11.400;2022-10-30T03:53:26;12.70;;;6.23;;
14306;SDS011;7237;49.500;11.400;2022-10-30T03:55:56;9.57;;;5.93;;
14306;SDS011;7237;49.500;11.400;2022-10-30T03:58:24;7.03;;;5.40;;
14306;SDS011;7237;49.500;11.400;2022-10-30T04:00:51;10.50;;;5.37;;
14306;SDS011;7237;49.500;11.400;2022-10-30T04:03:18;10.67;;;6.10;;
14306;SDS011;7237;49.500;11.400;2022-10-30T04:05:46;8.30;;;5.53;;
14306;SDS011;7237;49.500;11.400;2022-10-30T04:08:15;10.70;;;5.47;;
14306;SDS011;7237;49.500;11.400;2022-10-30T04:10:42;10.03;;;5.30;;
14306;SDS011;7237;49.500;11.400;2022-10-30T04:13:10;10.83;;;5.67;;
14306;SDS011;7237;49.500;11.400;2022-10-30T04:15:37;10.90;;;6.23;;
14306;SDS011;7237;49.500;11.400;2022-10-30T04:18:04;9.53;;;5.93;;
14306;SDS011;7237;49.500;11.400;2022-10-30T04:20:31;12.37;;;6.37;;
14306;SDS011;7237;49.500;11.400;2022-10-30T04:23:00;10.43;;;6.13;;
14306;SDS011;7237;49.500;11.400;2022-10-30T04:25:28;12.13;;;6.20;;
14306;SDS011;7237;49.500;11.400;2022-10-30T04:27:55;8.97;;;5.80;;
14306;SDS011;7237;49.500;11.400;2022-10-30T04:30:22;11.50;;;5.97;;
14306;SDS011;7237;49.500;11.400;2022-10-30T04:32:51;11.77;;;6.20;;
14306;SDS011;7237;49.500;11.400;2022-10-30T04:35:19;9.67;;;6.20;;
14306;SDS011;7237;49.500;11.400;2022-10-30T04:37:51;10.60;;;5.27;;
14306;SDS011;7237;49.500;11.400;2022-10-30T04:40:19;12.63;;;6.07;;
14306;SDS011;7237;49.500;11.400;2022-10-30T04:42:46;9.77;;;5.90;;
14306;SDS011;7237;49.500;11.400;2022-10-30T04:45:13;7.87;;;5.80;;
14306;SDS011;7237;49.500;11.400;2022-10-30T04:47:41;12.00;;;5.80;;
14306;SDS011;7237;49.500;11.400;2022-10-30T04:50:08;19.07;;;7.40;;
14306;SDS011;7237;49.500;11.400;2022-10-30T04:52:35;11.53;;;5.77;;
14306;SDS011;7237;49.500;11.400;2022-10-30T04:55:03;15.67;;;5.93;;
14306;SDS011;7237;49.500;11.400;2022-10-30T04:57:31;11.67;;;5.83;;
14306;SDS011;7237;49.500;11.400;2022-10-30T05:00:00;10.97;;;5.97;;
14306;SDS011;7237;49.500;11.400;2022-10-30T05:02:27;11.67;;;5.83;;
14306;SDS011;7237;49.500;11.400;2022-10-30T05:04:54;8.50;;;6.47;;
14306;SDS011;7237;49.500;11.400;2022-10-30T05:07:22;10.27;;;5.73;;
14306;SDS011;7237;49.500;11.400;2022-10-30T05:09:49;10.30;;;6.40;;
14306;SDS011;7237;49.500;11.400;2022-10-30T05:12:16;10.67;;;5.80;;
14306;SDS011;7237;49.500;11.400;2022-10-30T05:14:44;11.33;;;5.77;;
14306;SDS011;7237;49.500;11.400;2022-10-30T05:17:11;15.63;;;6.30;;
14306;SDS011;7237;49.500;11.400;2022-10-30T05:19:39;11.30;;;6.13;;
14306;SDS011;7237;49.500;11.400;2022-10-30T05:22:06;14.23;;;6.67;;
14306;SDS011;7237;49.500;11.400;2022-10-30T05:24:34;9.80;;;6.00;;
14306;SDS011;7237;49.500;11.400;2022-10-30T05:27:01;8.73;;;5.47;;
14306;SDS011;7237;49.500;11.400;2022-10-30T05:29:28;10.17;;;6.23;;
14306;SDS011;7237;49.500;11.400;2022-10-30T05:31:56;12.97;;;6.43;;
14306;SDS011;7237;49.500;11.400;2022-10-30T05:34:23;13.37;;;6.40;;
14306;SDS011;7237;49.500;11.400;2022-10-30T05:36:51;9.57;;;6.33;;
14306;SDS011;7237;49.500;11.400;2022-10-30T05:39:18;12.33;;;6.63;;
14306;SDS011;7237;49.500;11.400;2022-10-30T05:41:45;10.47;;;5.83;;
14306;SDS011;7237;49.500;11.400;2022-10-30T05:44:12;10.20;;;6.13;;
14306;SDS011;7237;49.500;11.400;2022-10-30T05:46:39;8.67;;;6.00;;
14306;SDS011;7237;49.500;11.400;2022-10-30T05:49:07;11.67;;;6.73;;
14306;SDS011;7237;49.500;11.400;2022-10-30T05:51:35;8.03;;;5.63;;
14306;SDS011;7237;49.500;11.400;2022-10-30T05:54:02;11.30;;;5.70;;
14306;SDS011;7237;49.500;11.400;2022-10-30T05:56:29;12.87;;;6.70;;
14306;SDS011;7237;49.500;11.400;2022-10-30T05:58:56;12.03;;;6.20;;
14306;SDS011;7237;49.500;11.400;2022-10-30T06:01:23;8.13;;;5.37;;
14306;SDS011;7237;49.500;11.400;2022-10-30T06:03:50;8.90;;;5.77;;
14306;SDS011;7237;49.500;11.400;2022-10-30T06:06:18;17.13;;;6.53;;
14306;SDS011;7237;49.500;11.400;2022-10-30T06:08:45;9.87;;;5.50;;
14306;SDS011;7237;49.500;11.400;2022-10-30T06:11:12;14.27;;;6.40;;
14306;SDS011;7237;49.500;11.400;2022-10-30T06:13:39;13.93;;;6.43;;
14306;SDS011;7237;49.500;11.400;2022-10-30T06:16:07;10.23;;;6.40;;
14306;SDS011;7237;49.500;11.400;2022-10-30T06:18:34;13.63;;;6.27;;
14306;SDS011;7237;49.500;11.400;2022-10-30T06:21:01;7.43;;;6.30;;
14306;SDS011;7237;49.500;11.400;2022-10-30T06:23:29;14.63;;;6.40;;
14306;SDS011;7237;49.500;11.400;2022-10-30T06:25:56;14.30;;;7.43;;
14306;SDS011;7237;49.500;11.400;2022-10-30T06:28:23;9.97;;;6.20;;
14306;SDS011;7237;49.500;11.400;2022-10-30T06:30:52;11.77;;;6.17;;
14306;SDS011;7237;49.500;11.400;2022-10-30T06:33:19;9.93;;;6.43;;
14306;SDS011;7237;49.500;11.400;2022-10-30T06:35:47;10.93;;;6.23;;
14306;SDS011;7237;49.500;11.400;2022-10-30T06:38:14;14.33;;;7.20;;
14306;SDS011;7237;49.500;11.400;2022-10-30T06:40:42;13.03;;;6.80;;
14306;SDS011;7237;49.500;11.400;2022-10-30T06:43:10;12.83;;;6.57;;
14306;SDS011;7237;49.500;11.400;2022-10-30T06:45:37;10.63;;;5.70;;
14306;SDS011;7237;49.500;11.400;2022-10-30T06:48:04;10.67;;;6.03;;
14306;SDS011;7237;49.500;11.400;2022-10-30T06:50:31;11.57;;;6.50;;
14306;SDS011;7237;49.500;11.400;2022-10-30T06:52:58;15.30;;;6.60;;
14306;SDS011;7237;49.500;11.400;2022-10-30T06:55:25;10.60;;;6.17;;
14306;SDS011;7237;49.500;11.400;2022-10-30T06:57:54;16.87;;;6.30;;
14306;SDS011;7237;49.500;11.400;2022-10-30T07:00:21;10.80;;;6.17;;
14306;SDS011;7237;49.500;11.400;2022-10-30T07:02:57;12.77;;;6.43;;
14306;SDS011;7237;49.500;11.400;2022-10-30T07:05:25;12.37;;;6.43;;
14306;SDS011;7237;49.500;11.400;2022-10-30T07:07:54;9.17;;;6.07;;
14306;SDS011;7237;49.500;11.400;2022-10-30T07:10:21;9.23;;;6.10;;
14306;SDS011;7237;49.500;11.400;2022-10-30T07:12:51;11.13;;;5.53;;
14306;SDS011;7237;49.500;11.400;2022-10-30T07:15:20;11.00;;;5.80;;
14306;SDS011;7237;49.500;11.400;2022-10-30T07:17:51;11.90;;;5.87;;
14306;SDS011;7237;49.500;11.400;2022-10-30T07:20:18;7.93;;;5.23;;
14306;SDS011;7237;49.500;11.400;2022-10-30T07:22:45;12.30;;;5.33;;
14306;SDS011;7237;49.500;11.400;2022-10-30T07:25:13;11.50;;;6.07;;
14306;SDS011;7237;49.500;11.400;2022-10-30T07:27:40;11.40;;;5.40;;
14306;SDS011;7237;49.500;11.400;2022-10-30T07:30:08;11.43;;;5.87;;
14306;SDS011;7237;49.500;11.400;2022-10-30T07:32:37;8.87;;;5.20;;
14306;SDS011;7237;49.500;11.400;2022-10-30T07:35:04;10.37;;;4.90;;
14306;SDS011;7237;49.500;11.400;2022-10-30T07:37:31;10.63;;;4.93;;
14306;SDS011;7237;49.500;11.400;2022-10-30T07:39:59;8.03;;;5.30;;
14306;SDS011;7237;49.500;11.400;2022-10-30T07:42:26;8.30;;;5.70;;
14306;SDS011;7237;49.500;11.400;2022-10-30T07:44:53;16.00;;;6.10;;
14306;SDS011;7237;49.500;11.400;2022-10-30T07:47:20;10.30;;;5.83;;
14306;SDS011;7237;49.500;11.400;2022-10-30T07:49:48;9.27;;;5.63;;
14306;SDS011;7237;49.500;11.400;2022-10-30T07:52:15;8.13;;;5.53;;
14306;SDS011;7237;49.500;11.400;2022-10-30T07:54:42;6.40;;;5.27;;
14306;SDS011;7237;49.500;11.400;2022-10-30T07:57:09;7.87;;;5.80;;
14306;SDS011;7237;49.500;11.400;2022-10-30T07:59:36;9.07;;;5.83;;
14306;SDS011;7237;49.500;11.400;2022-10-30T08:02:03;9.97;;;5.33;;
14306;SDS011;7237;49.500;11.400;2022-10-30T08:04:30;7.77;;;5.20;;
14306;SDS011;7237;49.500;11.400;2022-10-30T08:06:59;11.20;;;5.33;;
14306;SDS011;7237;49.500;11.400;2022-10-30T08:09:26;8.80;;;5.13;;
14306;SDS011;7237;49.500;11.400;2022-10-30T08:11:53;9.50;;;5.30;;
14306;SDS011;7237;49.500;11.400;2022-10-30T08:14:20;9.93;;;5.53;;
14306;SDS011;7237;49.500;11.400;2022-10-30T08:16:47;8.00;;;5.03;;
14306;SDS011;7237;49.500;11.400;2022-10-30T08:19:14;9.17;;;5.23;;
14306;SDS011;7237;49.500;11.400;2022-10-30T08:21:41;11.63;;;5.07;;
14306;SDS011;7237;49.500;11.400;2022-10-30T08:24:10;11.13;;;5.30;;
14306;SDS011;7237;49.500;11.400;2022-10-30T08:26:37;8.67;;;5.50;;
14306;SDS011;7237;49.500;11.400;2022-10-30T08:29:04;13.90;;;5.30;;
14306;SDS011;7237;49.500;11.400;2022-10-30T08:31:31;16.47;;;5.80;;
14306;SDS011;7237;49.500;11.400;2022-10-30T08:33:58;9.30;;;5.10;;
14306;SDS011;7237;49.500;11.400;2022-10-30T08:36:25;11.10;;;5.50;;
14306;SDS011;7237;49.500;11.400;2022-10-30T08:38:52;7.80;;;5.10;;
14306;SDS011;7237;49.500;11.400;2022-10-30T08:41:21;7.47;;;5.03;;
14306;SDS011;7237;49.500;11.400;2022-10-30T08:43:48;8.20;;;5.13;;
14306;SDS011;7237;49.500;11.400;2022-10-30T08:46:15;11.77;;;5.07;;
14306;SDS011;7237;49.500;11.400;2022-10-30T08:48:42;10.83;;;5.87;;
14306;SDS011;7237;49.500;11.400;2022-10-30T08:51:09;10.93;;;4.90;;
14306;SDS011;7237;49.500;11.400;2022-10-30T08:53:36;9.70;;;5.60;;
14306;SDS011;7237;49.500;11.400;2022-10-30T08:56:03;12.10;;;5.77;;
14306;SDS011;7237;49.500;11.400;2022-10-30T08:58:32;10.03;;;5.40;;
14306;SDS011;7237;49.500;11.400;2022-10-30T09:00:59;10.93;;;5.40;;
14306;SDS011;7237;49.500;11.400;2022-10-30T09:03:26;11.47;;;5.60;;
14306;SDS011;7237;49.500;11.400;2022-10-30T09:05:53;8.10;;;5.03;;
14306;SDS011;7237;49.500;11.400;2022-10-30T09:08:20;8.57;;;5.10;;
14306;SDS011;7237;49.500;11.400;2022-10-30T09:10:48;9.97;;;5.07;;
14306;SDS011;7237;49.500;11.400;2022-10-30T09:13:19;10.10;;;4.97;;
14306;SDS011;7237;49.500;11.400;2022-10-30T09:15:47;11.83;;;5.07;;
14306;SDS011;7237;49.500;11.400;2022-10-30T09:18:15;11.57;;;4.78;;
14306;SDS011;7237;49.500;11.400;2022-10-30T09:20:42;8.40;;;4.70;;
14306;SDS011;7237;49.500;11.400;2022-10-30T09:23:09;7.80;;;5.30;;
14306;SDS011;7237;49.500;11.400;2022-10-30T09:25:36;9.88;;;4.70;;
14306;SDS011;7237;49.500;11.400;2022-10-30T09:28:03;9.43;;;5.05;;
14306;SDS011;7237;49.500;11.400;2022-10-30T09:30:30;8.73;;;5.18;;
14306;SDS011;7237;49.500;11.400;2022-10-30T09:32:59;9.52;;;5.38;;
14306;SDS011;7237;49.500;11.400;2022-10-30T09:35:27;10.18;;;4.55;;
14306;SDS011;7237;49.500;11.400;2022-10-30T09:37:54;7.93;;;4.50;;
14306;SDS011;7237;49.500;11.400;2022-10-30T09:40:22;10.80;;;4.55;;
14306;SDS011;7237;49.500;11.400;2022-10-30T09:42:54;8.10;;;4.28;;
14306;SDS011;7237;49.500;11.400;2022-10-30T09:48:10;10.38;;;4.38;;
14306;SDS011;7237;49.500;11.400;2022-10-30T09:50:44;11.32;;;4.40;;
14306;SDS011;7237;49.500;11.400;2022-10-30T09:53:20;13.93;;;5.25;;
14306;SDS011;7237;49.500;11.400;2022-10-30T09:55:50;6.68;;;4.75;;
14306;SDS011;7237;49.500;11.400;2022-10-30T09:58:20;9.55;;;4.97;;
14306;SDS011;7237;49.500;11.400;2022-10-30T10:00:49;10.00;;;4.72;;
14306;SDS011;7237;49.500;11.400;2022-10-30T10:03:23;10.95;;;4.57;;
14306;SDS011;7237;49.500;11.400;2022-10-30T10:05:53;12.73;;;5.47;;
14306;SDS011;7237;49.500;11.400;2022-10-30T10:08:23;15.20;;;5.50;;
14306;SDS011;7237;49.500;11.400;2022-10-30T10:10:53;13.30;;;4.85;;
14306;SDS011;7237;49.500;11.400;2022-10-30T10:13:25;12.65;;;5.30;;
14306;SDS011;7237;49.500;11.400;2022-10-30T10:15:54;10.10;;;4.45;;
14306;SDS011;7237;49.500;11.400;2022-10-30T10:18:25;11.55;;;4.68;;
14306;SDS011;7237;49.500;11.400;2022-10-30T10:20:55;12.13;;;4.18;;
14306;SDS011;7237;49.500;11.400;2022-10-30T10:23:25;11.90;;;4.45;;
14306;SDS011;7237;49.500;11.400;2022-10-30T10:25:53;10.80;;;4.30;;
14306;SDS011;7237;49.500;11.400;2022-10-30T10:28:25;10.02;;;4.32;;
14306;SDS011;7237;49.500;11.400;2022-10-30T10:30:58;8.55;;;4.15;;
14306;SDS011;7237;49.500;11.400;2022-10-30T10:33:42;11.95;;;4.82;;
14306;SDS011;7237;49.500;11.400;2022-10-30T10:36:15;9.93;;;4.25;;
14306;SDS011;7237;49.500;11.400;2022-10-30T10:41:34;10.80;;;4.63;;
14306;SDS011;7237;49.500;11.400;2022-10-30T10:44:14;8.07;;;3.80;;
14306;SDS011;7237;49.500;11.400;2022-10-30T10:46:47;15.23;;;4.40;;
14306;SDS011;7237;49.500;11.400;2022-10-30T10:49:22;9.95;;;4.45;;
14306;SDS011;7237;49.500;11.400;2022-10-30T10:51:52;9.07;;;3.70;;
14306;SDS011;7237;49.500;11.400;2022-10-30T10:54:20;12.77;;;4.35;;
14306;SDS011;7237;49.500;11.400;2022-10-30T10:56:50;12.80;;;4.75;;
14306;SDS011;7237;49.500;11.400;2022-10-30T10:59:18;7.43;;;3.70;;
14306;SDS011;7237;49.500;11.400;2022-10-30T11:01:48;6.32;;;3.50;;
14306;SDS011;7237;49.500;11.400;2022-10-30T11:04:19;10.95;;;4.28;;
14306;SDS011;7237;49.500;11.400;2022-10-30T11:06:51;8.90;;;3.63;;
14306;SDS011;7237;49.500;11.400;2022-10-30T11:09:20;12.07;;;4.25;;
14306;SDS011;7237;49.500;11.400;2022-10-30T11:11:48;8.63;;;4.00;;
14306;SDS011;7237;49.500;11.400;2022-10-30T11:14:16;8.68;;;3.70;;
14306;SDS011;7237;49.500;11.400;2022-10-30T11:16:50;10.30;;;3.78;;
14306;SDS011;7237;49.500;11.400;2022-10-30T11:19:20;11.80;;;3.83;;
14306;SDS011;7237;49.500;11.400;2022-10-30T11:21:47;15.55;;;4.15;;
14306;SDS011;7237;49.500;11.400;2022-10-30T11:24:26;11.30;;;4.05;;
14306;SDS011;7237;49.500;11.400;2022-10-30T11:26:53;7.18;;;4.25;;
14306;SDS011;7237;49.500;11.400;2022-10-30T11:29:22;12.00;;;4.10;;
14306;SDS011;7237;49.500;11.400;2022-10-30T11:31:57;12.43;;;4.13;;
14306;SDS011;7237;49.500;11.400;2022-10-30T11:34:32;12.40;;;4.55;;
14306;SDS011;7237;49.500;11.400;2022-10-30T11:37:00;11.73;;;4.22;;
14306;SDS011;7237;49.500;11.400;2022-10-30T11:39:30;13.52;;;3.92;;
14306;SDS011;7237;49.500;11.400;2022-10-30T11:42:02;9.68;;;4.47;;
14306;SDS011;7237;49.500;11.400;2022-10-30T11:44:31;9.93;;;4.43;;
14306;SDS011;7237;49.500;11.400;2022-10-30T11:46:59;12.27;;;4.57;;
14306;SDS011;7237;49.500;11.400;2022-10-30T11:49:31;15.55;;;4.55;;
14306;SDS011;7237;49.500;11.400;2022-10-30T11:52:00;10.85;;;4.10;;
14306;SDS011;7237;49.500;11.400;2022-10-30T11:54:27;9.27;;;4.15;;
14306;SDS011;7237;49.500;11.400;2022-10-30T11:56:55;10.15;;;4.50;;
14306;SDS011;7237;49.500;11.400;2022-10-30T11:59:23;16.55;;;4.57;;
14306;SDS011;7237;49.500;11.400;2022-10-30T12:01:58;11.32;;;4.28;;
14306;SDS011;7237;49.500;11.400;2022-10-30T12:04:26;9.82;;;3.97;;
14306;SDS011;7237;49.500;11.400;2022-10-30T12:07:05;11.93;;;3.58;;
14306;SDS011;7237;49.500;11.400;2022-10-30T12:09:40;9.10;;;4.10;;
14306;SDS011;7237;49.500;11.400;2022-10-30T12:12:12;10.93;;;4.18;;
14306;SDS011;7237;49.500;11.400;2022-10-30T12:14:45;9.63;;;4.25;;
14306;SDS011;7237;49.500;11.400;2022-10-30T12:17:13;11.85;;;4.25;;
14306;SDS011;7237;49.500;11.400;2022-10-30T12:19:44;9.02;;;3.97;;
14306;SDS011;7237;49.500;11.400;2022-10-30T12:22:11;14.63;;;4.53;;
14306;SDS011;7237;49.500;11.400;2022-10-30T12:24:49;10.45;;;3.95;;
14306;SDS011;7237;49.500;11.400;2022-10-30T12:27:17;12.13;;;4.28;;
14306;SDS011;7237;49.500;11.400;2022-10-30T12:29:54;13.77;;;3.90;;
14306;SDS011;7237;49.500;11.400;2022-10-30T12:32:23;10.00;;;4.00;;
14306;SDS011;7237;49.500;11.400;2022-10-30T12:34:55;12.10;;;4.30;;
14306;SDS011;7237;49.500;11.400;2022-10-30T12:37:24;11.52;;;4.28;;
14306;SDS011;7237;49.500;11.400;2022-10-30T12:39:54;9.60;;;4.22;;
14306;SDS011;7237;49.500;11.400;2022-10-30T12:42:24;16.75;;;4.32;;
14306;SDS011;7237;49.500;11.400;2022-10-30T12:44:52;11.00;;;4.05;;
14306;SDS011;7237;49.500;11.400;2022-10-30T12:47:22;13.50;;;4.65;;
14306;SDS011;7237;49.500;11.400;2022-10-30T12:49:53;11.52;;;4.55;;
14306;SDS011;7237;49.500;11.400;2022-10-30T12:52:23;11.88;;;4.38;;
14306;SDS011;7237;49.500;11.400;2022-10-30T12:54:53;15.60;;;5.20;;
14306;SDS011;7237;49.500;11.400;2022-10-30T12:57:24;14.48;;;4.68;;
14306;SDS011;7237;49.500;11.400;2022-10-30T12:59:55;13.68;;;4.40;;
14306;SDS011;7237;49.500;11.400;2022-10-30T13:02:26;12.05;;;4.10;;
14306;SDS011;7237;49.500;11.400;2022-10-30T13:04:57;9.73;;;4.28;;
14306;SDS011;7237;49.500;11.400;2022-10-30T13:07:25;8.32;;;4.13;;
14306;SDS011;7237;49.500;11.400;2022-10-30T13:09:56;10.35;;;4.85;;
14306;SDS011;7237;49.500;11.400;2022-10-30T13:12:30;7.88;;;4.55;;
14306;SDS011;7237;49.500;11.400;2022-10-30T13:15:00;15.38;;;4.82;;
14306;SDS011;7237;49.500;11.400;2022-10-30T13:17:28;15.45;;;4.65;;
14306;SDS011;7237;49.500;11.400;2022-10-30T13:19:55;14.43;;;4.60;;
14306;SDS011;7237;49.500;11.400;2022-10-30T13:22:24;15.35;;;4.57;;
14306;SDS011;7237;49.500;11.400;2022-10-30T13:24:54;9.75;;;4.45;;
14306;SDS011;7237;49.500;11.400;2022-10-30T13:27:24;12.95;;;4.40;;
14306;SDS011;7237;49.500;11.400;2022-10-30T13:29:58;16.98;;;4.97;;
14306;SDS011;7237;49.500;11.400;2022-10-30T13:32:31;14.90;;;4.18;;
14306;SDS011;7237;49.500;11.400;2022-10-30T13:35:01;15.13;;;4.07;;
14306;SDS011;7237;49.500;11.400;2022-10-30T13:37:32;12.27;;;4.38;;
14306;SDS011;7237;49.500;11.400;2022-10-30T13:40:09;12.50;;;4.13;;
14306;SDS011;7237;49.500;11.400;2022-10-30T13:42:42;12.63;;;4.22;;
14306;SDS011;7237;49.500;11.400;2022-10-30T13:45:18;10.60;;;4.43;;
14306;SDS011;7237;49.500;11.400;2022-10-30T13:47:51;14.25;;;4.65;;
14306;SDS011;7237;49.500;11.400;2022-10-30T13:50:25;14.82;;;4.35;;
14306;SDS011;7237;49.500;11.400;2022-10-30T13:52:58;11.75;;;5.10;;
14306;SDS011;7237;49.500;11.400;2022-10-30T13:55:28;11.15;;;4.72;;
14306;SDS011;7237;49.500;11.400;2022-10-30T13:57:56;16.63;;;4.68;;
14306;SDS011;7237;49.500;11.400;2022-10-30T14:00:28;11.93;;;4.30;;
14306;SDS011;7237;49.500;11.400;2022-10-30T14:03:09;11.40;;;4.57;;
14306;SDS011;7237;49.500;11.400;2022-10-30T14:05:40;14.30;;;5.00;;
14306;SDS011;7237;49.500;11.400;2022-10-30T14:08:11;8.85;;;4.28;;
14306;SDS011;7237;49.500;11.400;2022-10-30T14:10:46;13.48;;;4.60;;
14306;SDS011;7237;49.500;11.400;2022-10-30T14:13:14;10.32;;;4.68;;
14306;SDS011;7237;49.500;11.400;2022-10-30T14:15:44;16.38;;;5.10;;
14306;SDS011;7237;49.500;11.400;2022-10-30T14:18:24;12.27;;;4.90;;
14306;SDS011;7237;49.500;11.400;2022-10-30T14:20:52;11.15;;;4.75;;
14306;SDS011;7237;49.500;11.400;2022-10-30T14:23:20;14.65;;;4.75;;
14306;SDS011;7237;49.500;11.400;2022-10-30T14:26:10;12.13;;;4.72;;
14306;SDS011;7237;49.500;11.400;2022-10-30T14:28:39;11.70;;;4.65;;
14306;SDS011;7237;49.500;11.400;2022-10-30T14:31:07;17.80;;;5.32;;
14306;SDS011;7237;49.500;11.400;2022-10-30T14:33:41;12.82;;;5.10;;
14306;SDS011;7237;49.500;11.400;2022-10-30T14:36:11;16.05;;;6.03;;
14306;SDS011;7237;49.500;11.400;2022-10-30T14:38:39;24.77;;;7.20;;
14306;SDS011;7237;49.500;11.400;2022-10-30T14:41:21;17.38;;;7.05;;
14306;SDS011;7237;49.500;11.400;2022-10-30T14:43:55;28.40;;;9.20;;
14306;SDS011;7237;49.500;11.400;2022-10-30T14:46:27;22.00;;;8.98;;
14306;SDS011;7237;49.500;11.400;2022-10-30T14:48:59;10.90;;;5.00;;
14306;SDS011;7237;49.500;11.400;2022-10-30T14:51:28;15.52;;;4.80;;
14306;SDS011;7237;49.500;11.400;2022-10-30T14:54:00;9.52;;;4.40;;